Sunday, May 27, 2018, 11:47 AM EDT

KPHF, Williamsburg International Airport

Location: Newport News, VA, United States Lat: 37.133
Local Time: 11:47 AM EDT (15:47 GMT) Lon: -76.5
Time Zone: US/Eastern Elev: 42 ft

Show me the last for .
Show Decoded

2018-05-27 10:54 METAR KPHF 271454Z 22010KT 10SM BKN016 27/22 A2998 RMK AO2 SLP150 T02670222
                 50001 =
2018-05-27 10:50 METAR KPHF 271450Z 22011KT 10SM BKN016 27/22 A2998 RMK AO2 =
2018-05-27 10:33 METAR KPHF 271433Z 22011KT 10SM BKN014 26/22 A2998 RMK AO2 T02560217 =
2018-05-27 10:22 METAR KPHF 271422Z 21012KT 10SM SCT014 26/22 A2997 RMK AO2 T02610222 =
2018-05-27 09:54 METAR KPHF 271354Z 22014KT 10SM BKN014 26/22 A2997 RMK AO2 SLP149 T02610222 =
2018-05-27 09:28 METAR KPHF 271328Z 22011KT 10SM SCT012 26/23 A2998 RMK AO2 T02610228 =
2018-05-27 08:54 METAR KPHF 271254Z 23011KT 10SM BKN011 24/22 A2998 RMK AO2 SLP150 T02390217 =
2018-05-27 07:54 METAR KPHF 271154Z 22012KT 10SM BKN013 23/21 A2996 RMK AO2 SLP146 60059 70063
                 T02330211 10239 20222 53008 =
2018-05-27 07:37 METAR KPHF 271137Z 23011G18KT 10SM BKN013 23/21 A2996 RMK AO2 T02280211 =
2018-05-27 06:54 METAR KPHF 271054Z 21009KT 10SM FEW012 SCT080 23/21 A2995 RMK AO2 SLP142
                 T02280211 =
2018-05-27 05:54 METAR KPHF 270954Z 20010KT 10SM CLR 23/21 A2993 RMK AO2 SLP135 T02280211 =
2018-05-27 04:54 METAR KPHF 270854Z AUTO 20008KT 10SM FEW021 BKN065 BKN090 23/22 A2994 RMK AO2
                 LTG DSNT SE RAE51 TSE31 SLP137 P0023 60059 T02280217 50000 =
2018-05-27 04:31 METAR KPHF 270831Z AUTO 20006KT 10SM VCTS -RA SCT030 BKN120 23/22 A2994 RMK AO2
                 LTG DSNT NE AND S TSE31 P0023 T02280217 =
2018-05-27 04:14 METAR KPHF 270814Z AUTO 21008KT 3SM -TSRA BR FEW007 BKN029 OVC070 23/22 A2994
                 RMK AO2 LTG DSNT NE AND SW P0023 T02280217 =
2018-05-27 04:11 METAR KPHF 270811Z AUTO 21007KT 1 3/4SM +TSRA BR FEW007 BKN026 OVC055 22/21
                 A2995 RMK AO2 LTG DSNT NE AND SW P0023 T02220211 =
2018-05-27 04:01 METAR KPHF 270801Z AUTO 24009KT 1 3/4SM +TSRA BR SCT011 BKN024 OVC060 23/21
                 A2995 RMK AO2 VIS 3/4V4 LTG DSNT SW P0013 T02280211 =
2018-05-27 03:57 METAR KPHF 270757Z AUTO 26011KT 2SM +TSRA BR FEW005 BKN013 OVC055 23/22 A2995
                 RMK AO2 VIS 1V4 LTG DSNT SW P0003 T02280217 =
2018-05-27 03:50 METAR KPHF 270750Z AUTO 24010G17KT 3/4SM +TSRA BR FEW006 BKN016 OVC023 23/22
                 A2994 RMK AO2 LTG DSNT SW RAB35 TSB35 P0034 =
2018-05-27 03:49 METAR KPHF 270749Z AUTO 24012KT 3/4SM +TSRA BR FEW006 BKN011 OVC023 23/22 A2994
                 RMK AO2 LTG DSNT SW RAB35 TSB35 P0033 =
2018-05-27 03:42 METAR KPHF 270742Z AUTO 24013KT 2 1/2SM -TSRA BR FEW009 BKN014 OVC046 23/22
                 A2995 RMK AO2 VIS 3/4V5 LTG DSNT SW RAB35 TSB35 P0009 T02330217 =
2018-05-27 03:38 METAR KPHF 270738Z AUTO 25012KT 5SM TSRA BR BKN013 BKN022 OVC046 24/22 A2995 RMK
                 AO2 LTG DSNT SW RAB35 TSB35 P0002 T02390217 =
2018-05-27 03:33 METAR KPHF 270733Z AUTO 23013G17KT 10SM VCTS SCT015 BKN022 OVC055 24/22 A2994
                 RMK AO2 LTG DSNT SW AND W T02390217 =
2018-05-27 02:54 METAR KPHF 270654Z AUTO 20009KT 10SM CLR 24/22 A2993 RMK AO2 SLP133 T02390217 =
2018-05-27 01:54 METAR KPHF 270554Z AUTO 21005KT 10SM CLR 24/22 A2993 RMK AO2 SLP133 60004
                 T02390222 10278 20228 58003 =
2018-05-27 00:54 METAR KPHF 270454Z AUTO 21005KT 10SM CLR 23/22 A2993 RMK AO2 RAB08E25 SLP135
                 P0000 T02330222 403110222 =
2018-05-26 23:54 METAR KPHF 270354Z AUTO 21008KT 10SM FEW037 FEW110 23/21 A2993 RMK AO2 LTG DSNT
                 W AND NW RAE07 SLP135 P0000 T02330211 =
2018-05-26 23:28 METAR KPHF 270328Z AUTO 19004KT 10SM FEW042 SCT050 BKN110 23/21 A2994 RMK AO2
                 LTG DSNT ALQDS RAE07 P0000 T02280211 =
2018-05-26 22:54 METAR KPHF 270254Z AUTO 18008KT 6SM VCTS -RA BR FEW060 BKN095 OVC110 23/21 A2994
                 RMK AO2 LTG DSNT ALQDS RAB21 TSB15E30B39E54 SLP137 P0004 60004 T02280211 53015 =
2018-05-26 22:45 METAR KPHF 270245Z 19010KT 5SM -TSRA BR FEW038 OVC095 23/21 A2994 RMK AO2 LTG
                 DSNT ALQDS RAB21 TSB15E30B39 P0003 T02280206 =
2018-05-26 22:36 METAR KPHF 270236Z 20014KT 6SM VCTS RA SCT038 BKN075 OVC110 23/20 A2994 RMK AO2
                 LTG DSNT N AND S AND SW RAB21 TSB15E30 P0002 T02330200 =
2018-05-26 22:21 METAR KPHF 270221Z 24017G23KT 10SM -TSRA FEW034 BKN044 OVC070 26/20 A2994 RMK
                 AO2 LTG DSNT S AND SW RAB21 TSB15 P0000 T02610200 =
2018-05-26 22:02 METAR KPHF 270202Z AUTO 20008KT 10SM VCTS BKN044 27/21 A2992 RMK AO2 LTG DSNT SW
                 AND W T02720206 =
2018-05-26 21:54 METAR KPHF 270154Z AUTO 20005KT 10SM SCT044 27/21 A2991 RMK AO2 LTG DSNT SW
                 SLP128 T02670211 =
2018-05-26 20:54 METAR KPHF 270054Z 20007KT 10SM CLR 27/21 A2989 RMK AO2 SLP120 T02720206 =
2018-05-26 19:54 METAR KPHF 262354Z 23006KT 10SM CLR 28/21 A2989 RMK AO2 SLP122 T02780211 10311
                 20278 53008 =
2018-05-26 18:54 METAR KPHF 262254Z 23008KT 10SM CLR 29/21 A2988 RMK AO2 SLP117 T02890206 =
2018-05-26 17:54 METAR KPHF 262154Z 22010KT 10SM CLR 29/20 A2987 RMK AO2 SLP114 T02940200 =
2018-05-26 16:54 METAR KPHF 262054Z 23014KT 10SM FEW050 31/21 A2987 RMK AO2 SLP114 T03060206
                 56010 =
2018-05-26 15:54 METAR KPHF 261954Z 22014KT 10SM FEW043 31/21 A2987 RMK AO2 SLP114 T03110206 =
2018-05-26 14:54 METAR KPHF 261854Z 20012KT 10SM CLR 31/21 A2988 RMK AO2 SLP117 T03060211 =
2018-05-26 13:54 METAR KPHF 261754Z 24014KT 10SM CLR 31/21 A2990 RMK AO2 SLP124 T03060206 10306
                 20239 58016 =
2018-05-26 12:54 METAR KPHF 261654Z 23011KT 10SM CLR 30/21 A2992 RMK AO2 SLP130 T03000211 =
2018-05-26 11:54 METAR KPHF 261554Z 23014KT 10SM CLR 30/21 A2994 RMK AO2 SLP136 T03000211 =

Support USWX by starting your Amazon purchase here.